Time;durP1;ratioP1;P1;durP2;ratioP2;P2;SDS_P1;SDS_P2;PMS_P1;PMS_P2;Temp;Humidity;BMP_temperature;BMP_pressure;BME280_temperature;BME280_humidity;BME280_pressure;Samples;Min_cycle;Max_cycle;Signal;HPM_P1;HPM_P2
2022/03/07 00:01:54;;;;;;;8.58;6.37;;;;;;;3.45;46.32;99274.07;1743740;82;21052;-62
2022/03/07 00:04:23;;;;;;;6.83;6.03;;;;;;;3.45;46.29;99272.76;1734146;81;20895;-61
2022/03/07 00:06:50;;;;;;;7.55;6.60;;;;;;;3.47;46.30;99268.67;1741984;81;21241;-62
2022/03/07 00:09:17;;;;;;;7.90;7.10;;;;;;;3.47;46.35;99272.14;1768559;80;21552;-61
2022/03/07 00:11:44;;;;;;;8.95;7.05;;;;;;;3.45;46.33;99270.60;1773561;80;21492;-62
2022/03/07 00:14:13;;;;;;;7.85;6.50;;;;;;;3.44;46.34;99266.33;1761806;80;20919;-62
2022/03/07 00:16:40;;;;;;;8.63;6.45;;;;;;;3.44;46.30;99260.56;1744244;82;20897;-60
2022/03/07 00:19:08;;;;;;;7.80;7.00;;;;;;;3.41;46.29;99259.53;1755454;80;22163;-62
2022/03/07 00:21:34;;;;;;;8.73;7.33;;;;;;;3.39;46.32;99258.80;1757053;80;21060;-61
2022/03/07 00:24:05;;;;;;;8.50;7.35;;;;;;;3.41;46.34;99260.00;1745462;80;20976;-61
2022/03/07 00:26:32;;;;;;;9.88;7.42;;;;;;;3.40;46.41;99260.95;1706126;84;20904;-62
2022/03/07 00:29:01;;;;;;;8.20;7.40;;;;;;;3.38;46.44;99253.21;1773484;80;20871;-63
2022/03/07 00:31:28;;;;;;;8.15;7.22;;;;;;;3.38;46.48;99253.21;1772931;80;21148;-61
2022/03/07 00:33:57;;;;;;;9.00;7.45;;;;;;;3.39;46.39;99246.97;1753984;80;21484;-62
2022/03/07 00:36:25;;;;;;;9.50;8.15;;;;;;;3.38;46.38;99242.70;1742963;80;21019;-59
2022/03/07 00:38:53;;;;;;;8.15;7.30;;;;;;;3.39;46.52;99243.02;1746527;81;21052;-62
2022/03/07 00:41:21;;;;;;;9.30;7.85;;;;;;;3.41;46.54;99244.23;1743471;81;20861;-62
2022/03/07 00:43:48;;;;;;;9.55;8.08;;;;;;;3.40;46.52;99236.81;1762994;80;21940;-62
2022/03/07 00:46:16;;;;;;;8.30;7.00;;;;;;;3.39;46.55;99236.45;1741004;82;21560;-63
2022/03/07 00:48:43;;;;;;;9.15;8.20;;;;;;;3.39;46.63;99237.77;1744522;80;20953;-63
2022/03/07 00:51:12;;;;;;;8.88;7.97;;;;;;;3.41;46.63;99233.71;1768357;80;21446;-61
2022/03/07 00:53:39;;;;;;;9.63;8.05;;;;;;;3.40;46.63;99231.55;1756755;80;20880;-61
2022/03/07 00:56:07;;;;;;;8.33;7.45;;;;;;;3.40;46.67;99226.77;1749352;80;21211;-62
2022/03/07 00:58:36;;;;;;;8.75;7.85;;;;;;;3.41;46.67;99229.77;1745734;80;21003;-62
2022/03/07 01:01:03;;;;;;;8.75;7.87;;;;;;;3.40;46.66;99224.98;1773398;80;20927;-61
2022/03/07 01:03:30;;;;;;;8.70;7.75;;;;;;;3.39;46.58;99225.94;1772963;80;20947;-62
2022/03/07 01:05:57;;;;;;;10.20;9.10;;;;;;;3.38;46.58;99220.34;1757643;80;20953;-62
2022/03/07 01:08:26;;;;;;;9.13;8.00;;;;;;;3.36;46.68;99218.34;1758813;80;21270;-61
2022/03/07 01:10:54;;;;;;;9.20;8.30;;;;;;;3.36;46.71;99215.70;1753920;80;20845;-61
2022/03/07 01:13:25;;;;;;;9.30;8.28;;;;;;;3.33;46.74;99214.64;1756269;80;20917;-61
2022/03/07 01:15:52;;;;;;;8.68;7.80;;;;;;;3.32;46.78;99210.81;1752502;80;20919;-62
2022/03/07 01:18:19;;;;;;;8.93;8.03;;;;;;;3.30;46.85;99209.64;1772820;80;20935;-62
2022/03/07 01:20:46;;;;;;;9.58;8.53;;;;;;;3.31;46.95;99203.41;1773456;80;21267;-62
2022/03/07 01:23:13;;;;;;;9.58;8.10;;;;;;;3.31;47.00;99198.14;1756038;81;20999;-62
2022/03/07 01:25:40;;;;;;;8.85;7.95;;;;;;;3.28;47.09;99205.01;1742257;81;20940;-62
2022/03/07 01:28:09;;;;;;;8.40;7.60;;;;;;;3.27;47.16;99201.17;1711035;82;20961;-62
2022/03/07 01:30:36;;;;;;;10.85;8.58;;;;;;;3.25;47.27;99206.58;1674123;85;20930;-62
2022/03/07 01:33:03;;;;;;;9.13;8.23;;;;;;;3.25;47.33;99202.63;1695922;84;21280;-63
2022/03/07 01:35:31;;;;;;;10.13;9.00;;;;;;;3.26;47.31;99195.08;1682705;84;21039;-62
2022/03/07 01:37:58;;;;;;;11.78;8.98;;;;;;;3.26;47.39;99201.65;1745705;80;20985;-62
2022/03/07 01:40:25;;;;;;;12.45;8.83;;;;;;;3.26;47.52;99195.59;1744288;80;21545;-62
2022/03/07 01:42:53;;;;;;;10.68;9.05;;;;;;;3.32;47.50;99198.98;1743552;81;20875;-62
2022/03/07 01:45:20;;;;;;;11.00;9.30;;;;;;;3.33;47.45;99196.24;1748580;81;23933;-61
2022/03/07 01:47:48;;;;;;;9.95;9.03;;;;;;;3.33;47.46;99190.98;1739579;81;20937;-63
2022/03/07 01:50:17;;;;;;;11.03;9.20;;;;;;;3.35;47.51;99189.52;1742883;80;21020;-61
2022/03/07 01:52:48;;;;;;;9.10;8.00;;;;;;;3.27;47.70;99192.81;1761917;80;21002;-62
2022/03/07 01:55:15;;;;;;;9.68;8.68;;;;;;;3.24;47.81;99189.12;1771122;80;20959;-61
2022/03/07 01:57:45;;;;;;;9.30;8.35;;;;;;;3.24;47.93;99193.07;1740959;82;21242;-62
2022/03/07 02:00:19;;;;;;;9.48;8.53;;;;;;;3.23;47.94;99188.80;1768689;80;21418;-63
2022/03/07 02:02:47;;;;;;;10.88;9.65;;;;;;;3.23;48.00;99183.53;1752416;80;20992;-61
2022/03/07 02:05:16;;;;;;;10.15;9.10;;;;;;;3.22;48.01;99182.33;1743912;80;21041;-62
2022/03/07 02:07:46;;;;;;;10.45;8.70;;;;;;;3.20;48.08;99185.11;1744581;80;20927;-62
2022/03/07 02:10:14;;;;;;;10.08;8.73;;;;;;;3.19;48.20;99183.43;1768125;80;21211;-61
2022/03/07 02:12:42;;;;;;;11.10;8.68;;;;;;;3.20;48.25;99182.95;1746637;81;20949;-62
2022/03/07 02:15:09;;;;;;;11.63;8.43;;;;;;;3.18;48.24;99180.44;1749744;80;21049;-61
2022/03/07 02:17:40;;;;;;;9.73;8.73;;;;;;;3.16;48.22;99178.43;1756003;80;20956;-62
2022/03/07 02:20:10;;;;;;;9.80;8.83;;;;;;;3.15;48.32;99184.67;1717542;82;20986;-62
2022/03/07 02:22:37;;;;;;;9.50;8.58;;;;;;;3.13;48.31;99180.51;1737840;82;21216;-62
2022/03/07 02:25:06;;;;;;;11.83;8.55;;;;;;;3.22;48.16;99176.60;1736470;81;20941;-62
2022/03/07 02:27:36;;;;;;;12.00;8.15;;;;;;;3.23;48.06;99173.50;1734346;81;20988;-62
2022/03/07 02:30:06;;;;;;;12.10;9.28;;;;;;;3.23;48.13;99175.65;1734347;82;20964;-63
2022/03/07 02:32:36;;;;;;;10.38;9.18;;;;;;;3.22;48.22;99181.02;1713993;82;20964;-61
2022/03/07 02:35:06;;;;;;;9.55;8.63;;;;;;;3.24;48.23;99172.52;1737401;81;21215;-61
2022/03/07 02:37:33;;;;;;;11.30;9.13;;;;;;;3.23;48.24;99171.70;1734010;81;21501;-62
2022/03/07 02:40:01;;;;;;;9.05;8.15;;;;;;;3.21;48.33;99171.48;1734287;82;20925;-62
2022/03/07 02:42:30;;;;;;;10.45;8.90;;;;;;;3.21;48.39;99167.04;1737631;81;20996;-63
2022/03/07 02:44:57;;;;;;;9.38;8.40;;;;;;;3.20;48.34;99163.23;1742586;81;20924;-60
2022/03/07 02:47:26;;;;;;;9.25;8.30;;;;;;;3.20;48.37;99161.45;1734008;81;21293;-61
2022/03/07 02:49:53;;;;;;;9.75;8.63;;;;;;;3.19;48.34;99165.03;1742063;81;21402;-59
2022/03/07 02:52:20;;;;;;;9.58;8.60;;;;;;;3.20;48.30;99159.30;1737806;81;21376;-62
2022/03/07 02:54:48;;;;;;;10.35;8.78;;;;;;;3.19;48.31;99151.05;1734462;81;21115;-62
2022/03/07 02:57:15;;;;;;;10.98;9.05;;;;;;;3.16;48.28;99146.88;1734051;82;21573;-62
2022/03/07 02:59:42;;;;;;;10.00;9.00;;;;;;;3.17;48.37;99149.88;1735266;81;22122;-61
2022/03/07 03:02:09;;;;;;;10.72;9.50;;;;;;;3.17;48.35;99145.94;1762746;81;21458;-62
2022/03/07 03:04:36;;;;;;;11.95;9.30;;;;;;;3.16;48.35;99146.88;1751218;81;21044;-62
2022/03/07 03:07:05;;;;;;;11.08;9.73;;;;;;;3.16;48.35;99140.79;1732895;82;20996;-62
2022/03/07 03:09:32;;;;;;;12.05;10.18;;;;;;;3.16;48.37;99144.25;1735056;81;21498;-62
2022/03/07 03:11:59;;;;;;;10.40;9.20;;;;;;;3.15;48.37;99143.92;1734172;82;21246;-62
2022/03/07 03:14:26;;;;;;;10.72;9.13;;;;;;;3.13;48.37;99140.57;1735576;81;21037;-63
2022/03/07 03:16:53;;;;;;;10.75;8.58;;;;;;;3.14;48.36;99144.88;1732156;82;20925;-61
2022/03/07 03:19:20;;;;;;;10.85;8.88;;;;;;;3.14;48.39;99147.50;1734264;82;20901;-63
2022/03/07 03:21:47;;;;;;;11.15;8.53;;;;;;;3.13;48.47;99143.20;1745187;81;21653;-61
2022/03/07 03:24:14;;;;;;;10.30;9.15;;;;;;;3.14;48.45;99142.25;1726340;81;21395;-62
2022/03/07 03:26:42;;;;;;;10.82;9.08;;;;;;;3.13;48.37;99137.47;1731826;81;20986;-61
2022/03/07 03:29:09;;;;;;;11.70;8.93;;;;;;;3.13;48.33;99137.47;1720044;82;21494;-61
2022/03/07 03:31:37;;;;;;;11.33;9.13;;;;;;;3.14;48.31;99136.99;1738663;82;21945;-61
2022/03/07 03:34:04;;;;;;;10.10;8.95;;;;;;;3.12;48.30;99131.05;1736795;82;21589;-62
2022/03/07 03:36:33;;;;;;;12.50;8.93;;;;;;;3.13;48.32;99139.26;1736999;82;21244;-63
2022/03/07 03:39:01;;;;;;;10.48;9.38;;;;;;;3.13;48.39;99132.69;1737920;81;21056;-62
2022/03/07 03:41:29;;;;;;;10.08;9.08;;;;;;;3.11;48.45;99131.52;1737094;81;20941;-62
2022/03/07 03:43:56;;;;;;;11.38;9.68;;;;;;;3.09;48.49;99127.36;1737955;82;21004;-61
2022/03/07 03:46:23;;;;;;;11.03;9.48;;;;;;;3.09;48.49;99128.67;1733464;81;20893;-62
2022/03/07 03:48:51;;;;;;;10.00;8.98;;;;;;;3.09;48.54;99123.41;1737107;81;21257;-60
2022/03/07 03:51:18;;;;;;;11.03;9.78;;;;;;;3.09;48.52;99121.62;1737502;81;20945;-62
2022/03/07 03:53:45;;;;;;;10.85;9.10;;;;;;;3.09;48.55;99112.91;1738159;82;21605;-61
2022/03/07 03:56:12;;;;;;;9.75;8.73;;;;;;;3.08;48.58;99116.00;1705970;82;20934;-61
2022/03/07 03:58:39;;;;;;;12.30;9.95;;;;;;;3.08;48.52;99112.06;1738875;82;20901;-61
2022/03/07 04:01:06;;;;;;;11.18;9.15;;;;;;;3.05;48.53;99112.83;1738913;81;21266;-62
2022/03/07 04:03:33;;;;;;;11.43;9.40;;;;;;;3.05;48.53;99111.52;1738972;82;20995;-62
2022/03/07 04:06:00;;;;;;;11.10;9.48;;;;;;;3.04;48.57;99104.58;1709225;81;20937;-62
2022/03/07 04:08:34;;;;;;;13.40;9.60;;;;;;;3.04;48.50;99101.95;1733901;80;20955;-61
2022/03/07 04:11:01;;;;;;;10.95;8.75;;;;;;;3.05;48.54;99108.38;1699645;82;20885;-61
2022/03/07 04:13:28;;;;;;;11.35;9.33;;;;;;;3.03;48.57;99106.84;1736356;81;21356;-60
2022/03/07 04:15:55;;;;;;;9.63;8.63;;;;;;;3.03;48.60;99098.48;1730838;82;20964;-62
2022/03/07 04:18:22;;;;;;;13.08;8.95;;;;;;;3.03;48.64;99101.12;1739853;82;20881;-62
2022/03/07 04:20:51;;;;;;;11.75;9.35;;;;;;;3.04;48.73;99099.33;1728605;82;21015;-62
2022/03/07 04:23:21;;;;;;;12.35;9.90;;;;;;;3.05;48.68;99094.44;1742873;80;20980;-62
2022/03/07 04:25:48;;;;;;;11.18;10.03;;;;;;;3.05;48.61;99094.44;1768546;80;21786;-60
2022/03/07 04:28:17;;;;;;;16.37;12.68;;;;;;;3.04;48.69;99091.44;1744337;80;20964;-62
2022/03/07 04:30:46;;;;;;;13.18;10.78;;;;;;;3.03;48.73;99092.39;1748487;80;21493;-62
2022/03/07 04:33:13;;;;;;;27.42;18.70;;;;;;;3.00;48.76;99093.97;1756466;80;20930;-61
2022/03/07 04:35:40;;;;;;;36.83;24.15;;;;;;;3.00;48.86;99092.17;1744610;80;20924;-62
2022/03/07 04:38:07;;;;;;;28.60;20.10;;;;;;;3.00;48.95;99092.66;1753341;80;21163;-63
2022/03/07 04:40:34;;;;;;;16.48;13.62;;;;;;;3.02;49.00;99092.87;1745497;80;20982;-62
2022/03/07 04:43:02;;;;;;;12.43;11.00;;;;;;;3.02;48.89;99088.13;1773658;80;20931;-60
2022/03/07 04:45:29;;;;;;;12.30;10.23;;;;;;;3.01;48.78;99087.28;1770031;80;20975;-61
2022/03/07 04:47:56;;;;;;;11.55;9.70;;;;;;;3.01;48.78;99088.59;1748510;80;20998;-61
2022/03/07 04:50:23;;;;;;;11.55;10.35;;;;;;;3.03;48.84;99084.52;1743199;80;21270;-62
2022/03/07 04:52:50;;;;;;;11.20;9.63;;;;;;;3.02;48.84;99082.36;1743938;82;20885;-61
2022/03/07 04:55:18;;;;;;;10.72;9.60;;;;;;;3.01;48.80;99083.34;1744173;82;20933;-61
2022/03/07 04:57:45;;;;;;;13.22;10.43;;;;;;;3.00;48.89;99082.98;1759971;80;21454;-62
2022/03/07 05:00:14;;;;;;;16.48;12.07;;;;;;;3.00;48.88;99082.14;1768138;80;21417;-62
2022/03/07 05:02:41;;;;;;;23.67;12.47;;;;;;;2.99;48.90;99085.28;1743932;82;21418;-62
2022/03/07 05:05:08;;;;;;;16.17;11.88;;;;;;;3.02;48.92;99084.18;1755103;80;21464;-60
2022/03/07 05:07:37;;;;;;;13.75;12.23;;;;;;;3.01;48.88;99084.66;1771924;80;21476;-61
2022/03/07 05:10:06;;;;;;;12.82;11.48;;;;;;;3.01;48.92;99083.81;1702790;83;21518;-61
2022/03/07 05:12:33;;;;;;;13.13;11.73;;;;;;;3.02;48.91;99078.92;1759987;80;20968;-64
2022/03/07 05:15:00;;;;;;;17.32;11.55;;;;;;;3.03;48.94;99084.52;1773529;80;22133;-62
2022/03/07 05:17:27;;;;;;;20.02;12.30;;;;;;;3.03;48.97;99081.88;1770551;80;21548;-63
2022/03/07 05:19:54;;;;;;;13.40;11.22;;;;;;;3.04;48.97;99077.83;1766453;80;20940;-61
2022/03/07 05:22:24;;;;;;;16.55;10.68;;;;;;;3.05;48.96;99079.98;1770874;80;21029;-61
2022/03/07 05:24:51;;;;;;;11.57;10.38;;;;;;;3.06;48.96;99075.89;1755806;81;20944;-62
2022/03/07 05:27:18;;;;;;;12.40;11.05;;;;;;;3.09;48.96;99077.42;1732604;81;21152;-61
2022/03/07 05:29:46;;;;;;;12.65;10.28;;;;;;;3.09;48.93;99073.00;1740652;81;21516;-62
2022/03/07 05:32:13;;;;;;;11.40;9.88;;;;;;;3.13;48.88;99075.37;1760470;81;21426;-62
2022/03/07 05:34:40;;;;;;;11.20;10.10;;;;;;;3.11;48.83;99078.95;1732317;81;21006;-62
2022/03/07 05:37:08;;;;;;;11.25;9.48;;;;;;;3.11;48.82;99075.01;1728796;81;21478;-62
2022/03/07 05:39:35;;;;;;;10.40;9.15;;;;;;;3.15;48.78;99076.90;1746423;81;21248;-62
2022/03/07 05:42:04;;;;;;;11.50;9.10;;;;;;;3.16;48.69;99072.45;1761052;81;20908;-61
2022/03/07 05:44:32;;;;;;;14.07;10.15;;;;;;;3.15;48.69;99070.80;1731046;81;21611;-61
2022/03/07 05:46:59;;;;;;;9.48;8.45;;;;;;;3.18;48.77;99074.48;1729286;81;21048;-63
2022/03/07 05:49:26;;;;;;;9.48;8.43;;;;;;;3.18;48.82;99077.92;1750148;81;21558;-62
2022/03/07 05:51:53;;;;;;;12.40;9.03;;;;;;;3.22;48.79;99072.76;1760912;81;21246;-60
2022/03/07 05:54:20;;;;;;;10.98;9.75;;;;;;;3.23;48.74;99075.75;1736119;81;20926;-62
2022/03/07 05:56:47;;;;;;;13.05;10.15;;;;;;;3.27;48.73;99080.23;1733864;81;20943;-61
2022/03/07 05:59:14;;;;;;;11.48;9.20;;;;;;;3.30;48.66;99081.29;1729048;81;20950;-63
2022/03/07 06:01:41;;;;;;;11.70;9.25;;;;;;;3.33;48.64;99077.92;1723443;81;20942;-61
2022/03/07 06:04:11;;;;;;;10.78;9.68;;;;;;;3.37;48.63;99074.04;1738309;81;21252;-62
2022/03/07 06:06:40;;;;;;;11.45;9.25;;;;;;;3.40;48.66;99075.09;1743844;81;20872;-64
2022/03/07 06:09:07;;;;;;;10.55;9.35;;;;;;;3.44;48.68;99077.78;1753182;81;20904;-64
2022/03/07 06:11:35;;;;;;;14.95;10.03;;;;;;;3.47;48.56;99076.68;1740322;81;20998;-62
2022/03/07 06:14:02;;;;;;;13.08;9.73;;;;;;;3.49;48.53;99077.41;1732533;81;21431;-62
2022/03/07 06:16:29;;;;;;;14.05;9.33;;;;;;;3.54;48.63;99074.72;1731695;81;21488;-61
2022/03/07 06:18:56;;;;;;;11.78;9.48;;;;;;;3.58;48.55;99077.41;1731323;81;21051;-62
2022/03/07 06:21:28;;;;;;;10.25;8.78;;;;;;;3.61;48.43;99074.99;1746147;81;20907;-65
2022/03/07 06:23:55;;;;;;;10.80;8.98;;;;;;;3.63;48.25;99077.00;1761106;81;21505;-65
2022/03/07 06:26:23;;;;;;;8.93;7.55;;;;;;;3.64;48.21;99079.51;1763468;81;20888;-62
2022/03/07 06:28:51;;;;;;;10.13;7.12;;;;;;;3.66;48.14;99081.52;1757608;80;21216;-63
2022/03/07 06:31:19;;;;;;;8.08;7.25;;;;;;;3.69;48.17;99079.93;1751036;81;20979;-63
2022/03/07 06:33:46;;;;;;;8.45;7.00;;;;;;;3.74;48.24;99082.98;1768402;80;20970;-62
2022/03/07 06:36:13;;;;;;;9.00;7.40;;;;;;;3.78;48.04;99082.71;1765165;80;20895;-63
2022/03/07 06:38:40;;;;;;;7.60;6.35;;;;;;;3.80;47.94;99082.08;1706331;83;20901;-62
2022/03/07 06:41:07;;;;;;;9.00;7.08;;;;;;;3.82;47.93;99080.98;1765107;81;21276;-61
2022/03/07 06:43:34;;;;;;;8.78;7.33;;;;;;;3.83;47.86;99077.39;1758387;81;21099;-62
2022/03/07 06:46:01;;;;;;;8.85;6.58;;;;;;;3.85;47.89;99078.55;1767228;80;20868;-64
2022/03/07 06:48:28;;;;;;;10.00;6.87;;;;;;;3.89;47.91;99079.92;1765071;80;21501;-63
2022/03/07 06:50:55;;;;;;;12.88;7.17;;;;;;;3.95;47.87;99077.59;1759460;80;21631;-61
2022/03/07 06:53:23;;;;;;;9.23;6.85;;;;;;;3.99;47.82;99076.33;1736355;81;21143;-62
2022/03/07 06:55:51;;;;;;;15.13;7.35;;;;;;;4.06;47.71;99076.63;1751667;80;20991;-61
2022/03/07 06:58:21;;;;;;;12.00;7.65;;;;;;;4.09;47.66;99073.72;1755081;80;20982;-62
2022/03/07 07:00:49;;;;;;;8.30;6.67;;;;;;;4.03;47.84;99072.47;1754610;80;21477;-62
2022/03/07 07:03:15;;;;;;;8.08;6.58;;;;;;;4.02;47.73;99073.91;1730877;82;21537;-62
2022/03/07 07:05:43;;;;;;;7.92;6.17;;;;;;;4.02;47.70;99073.91;1749080;80;21155;-61
2022/03/07 07:08:10;;;;;;;7.78;6.08;;;;;;;4.02;47.49;99069.95;1759936;81;20916;-63
2022/03/07 07:10:38;;;;;;;8.73;5.72;;;;;;;4.00;47.22;99075.85;1743439;80;20888;-63
2022/03/07 07:13:05;;;;;;;8.28;5.87;;;;;;;3.99;47.13;99075.52;1763693;80;21011;-64
2022/03/07 07:15:33;;;;;;;6.90;6.20;;;;;;;4.02;46.90;99072.11;1759298;80;21036;-64
2022/03/07 07:18:01;;;;;;;8.05;6.47;;;;;;;4.05;46.81;99068.37;1773350;80;21241;-64
2022/03/07 07:20:28;;;;;;;9.40;6.03;;;;;;;4.19;46.50;99071.91;1774017;80;20946;-63
2022/03/07 07:22:55;;;;;;;10.58;5.92;;;;;;;4.27;46.28;99070.24;1770631;80;20940;-64
2022/03/07 07:25:24;;;;;;;7.45;5.30;;;;;;;4.34;46.16;99065.23;1757902;80;20887;-62
2022/03/07 07:27:51;;;;;;;8.18;5.45;;;;;;;4.41;46.07;99067.63;1760779;80;21092;-62
2022/03/07 07:30:18;;;;;;;11.53;5.72;;;;;;;4.47;45.86;99065.77;1759070;80;21861;-62
2022/03/07 07:32:47;;;;;;;7.55;5.78;;;;;;;4.50;45.61;99058.90;1751932;80;21010;-64
2022/03/07 07:35:14;;;;;;;9.65;5.45;;;;;;;4.53;45.44;99048.56;1762339;80;20960;-63
2022/03/07 07:37:45;;;;;;;7.12;5.92;;;;;;;4.61;45.42;99050.84;1767110;80;21457;-67
2022/03/07 07:40:13;;;;;;;11.88;6.25;;;;;;;4.68;45.26;99048.45;1773311;80;21446;-64
2022/03/07 07:42:42;;;;;;;10.13;6.92;;;;;;;4.75;45.27;99046.89;1764084;80;21340;-62
2022/03/07 07:45:10;;;;;;;7.25;6.15;;;;;;;4.86;45.11;99050.67;1752259;80;20931;-61
2022/03/07 07:47:37;;;;;;;7.10;6.00;;;;;;;4.98;44.72;99042.43;1732160;82;20999;-64
2022/03/07 07:50:05;;;;;;;8.30;5.92;;;;;;;5.03;44.57;99038.55;1696328;84;20951;-64
2022/03/07 07:52:33;;;;;;;6.80;5.47;;;;;;;5.11;44.61;99042.60;1707172;83;20998;-64
2022/03/07 07:55:02;;;;;;;7.90;6.17;;;;;;;5.28;44.48;99038.69;1696836;83;21335;-63
2022/03/07 07:57:29;;;;;;;7.17;5.45;;;;;;;5.45;44.25;99038.36;1694554;83;20936;-63
2022/03/07 07:59:56;;;;;;;7.70;6.22;;;;;;;5.61;44.00;99038.53;1708258;84;21116;-64
2022/03/07 08:02:23;;;;;;;21.77;6.15;;;;;;;5.74;43.64;99038.16;1692380;83;20977;-64
2022/03/07 08:04:53;;;;;;;8.20;5.95;;;;;;;5.84;43.36;99033.15;1687747;84;21058;-62
2022/03/07 08:07:20;;;;;;;8.90;6.35;;;;;;;5.91;43.16;99028.14;1688398;84;21281;-67
2022/03/07 08:09:47;;;;;;;6.47;5.72;;;;;;;6.02;43.05;99024.76;1677375;84;21020;-63
2022/03/07 08:12:17;;;;;;;10.58;6.95;;;;;;;6.16;42.87;99024.23;1682136;83;21079;-64
2022/03/07 08:14:44;;;;;;;6.42;5.78;;;;;;;6.20;42.33;99024.24;1738703;80;21406;-62
2022/03/07 08:17:12;;;;;;;7.67;6.25;;;;;;;6.25;42.27;99022.97;1757572;80;20940;-62
2022/03/07 08:19:39;;;;;;;9.18;6.53;;;;;;;6.31;42.23;99021.05;1748452;80;21257;-62
2022/03/07 08:22:06;;;;;;;6.50;5.40;;;;;;;6.35;42.06;99019.25;1751695;80;21576;-64
2022/03/07 08:24:34;;;;;;;8.25;6.15;;;;;;;6.44;41.71;99015.66;1761897;80;20994;-60
2022/03/07 08:27:02;;;;;;;8.73;6.10;;;;;;;6.43;41.22;99019.80;1773526;80;20967;-62
2022/03/07 08:29:29;;;;;;;7.08;5.67;;;;;;;6.37;41.07;99012.48;1713540;82;21011;-62
2022/03/07 08:31:56;;;;;;;9.20;6.22;;;;;;;6.32;41.10;99022.69;1690086;83;21912;-61
2022/03/07 08:34:32;;;;;;;8.45;5.50;;;;;;;6.29;40.94;99021.66;1759384;80;20968;-63
2022/03/07 08:37:00;;;;;;;8.13;5.42;;;;;;;6.25;40.92;99026.94;1757792;80;20975;-60
2022/03/07 08:39:27;;;;;;;7.70;4.90;;;;;;;6.23;40.76;99020.50;1752360;80;21006;-62
2022/03/07 08:41:55;;;;;;;6.20;4.90;;;;;;;6.18;40.59;99026.22;1755200;80;20892;-61
2022/03/07 08:44:22;;;;;;;5.10;4.10;;;;;;;6.14;40.58;99024.05;1753919;80;21972;-64
2022/03/07 08:46:49;;;;;;;5.42;4.10;;;;;;;6.13;40.42;99020.56;1753206;80;21498;-63
2022/03/07 08:49:16;;;;;;;4.35;3.95;;;;;;;6.14;40.12;99019.59;1760779;80;21021;-63
2022/03/07 08:51:46;;;;;;;4.45;3.35;;;;;;;6.20;39.92;99020.80;1758934;80;20990;-66
2022/03/07 08:54:14;;;;;;;6.20;3.77;;;;;;;6.19;39.57;99019.13;1760538;80;21449;-65
2022/03/07 08:56:41;;;;;;;4.40;3.58;;;;;;;6.23;39.53;99020.50;1755842;80;21286;-62
2022/03/07 08:59:08;;;;;;;5.60;4.20;;;;;;;6.30;39.49;99020.20;1765693;80;20994;-65
2022/03/07 09:01:36;;;;;;;5.70;3.98;;;;;;;6.28;39.11;99021.34;1755241;80;21707;-65
2022/03/07 09:04:04;;;;;;;4.47;3.50;;;;;;;6.20;38.89;99016.31;1755544;80;21007;-64
2022/03/07 09:06:32;;;;;;;4.58;3.27;;;;;;;6.16;39.02;99013.66;1764711;80;21019;-66
2022/03/07 09:08:59;;;;;;;5.33;3.58;;;;;;;6.15;38.97;99018.59;1756949;80;22036;-66
2022/03/07 09:11:26;;;;;;;9.85;3.58;;;;;;;6.16;38.99;99018.11;1759724;80;22273;-60
2022/03/07 09:13:53;;;;;;;6.20;3.60;;;;;;;6.14;38.87;99023.56;1752659;80;21042;-63
2022/03/07 09:16:20;;;;;;;5.67;3.40;;;;;;;6.10;38.77;99022.70;1767528;80;21954;-64
2022/03/07 09:18:50;;;;;;;7.62;3.60;;;;;;;6.04;38.86;99028.10;1720046;81;21142;-65
2022/03/07 09:21:17;;;;;;;4.83;3.80;;;;;;;6.02;38.96;99033.20;1759642;80;21272;-62
2022/03/07 09:23:46;;;;;;;4.50;3.55;;;;;;;5.92;38.78;99033.26;1755914;80;21581;-61
2022/03/07 09:26:13;;;;;;;3.40;3.10;;;;;;;5.88;38.81;99024.48;1736422;81;20894;-61
2022/03/07 09:28:40;;;;;;;6.37;4.00;;;;;;;5.82;38.81;99023.72;1741677;81;20986;-63
2022/03/07 09:31:07;;;;;;;3.90;3.20;;;;;;;5.78;38.87;99025.85;1739779;81;21047;-60
2022/03/07 09:33:36;;;;;;;4.00;3.50;;;;;;;5.71;38.92;99027.41;1735418;81;21161;-64
2022/03/07 09:36:04;;;;;;;4.92;4.25;;;;;;;5.67;39.14;99029.19;1738097;81;20865;-63
2022/03/07 09:38:34;;;;;;;6.08;3.72;;;;;;;5.63;39.18;99032.64;1740049;81;20975;-62
2022/03/07 09:41:01;;;;;;;8.15;3.70;;;;;;;5.59;39.33;99025.98;1745084;81;21554;-63
2022/03/07 09:43:28;;;;;;;5.60;3.87;;;;;;;5.55;39.40;99029.40;1745861;81;22475;-64
2022/03/07 09:45:57;;;;;;;4.42;2.98;;;;;;;5.50;39.39;99026.38;1745877;81;21074;-63
2022/03/07 09:48:25;;;;;;;4.87;3.05;;;;;;;5.51;39.37;99021.94;1743933;81;21038;-62
2022/03/07 09:50:52;;;;;;;6.22;3.47;;;;;;;5.50;39.31;99023.74;1746814;81;21549;-63
2022/03/07 09:53:19;;;;;;;5.95;4.00;;;;;;;5.51;39.31;99024.58;1749539;81;21004;-60
2022/03/07 09:55:46;;;;;;;5.15;3.35;;;;;;;5.57;39.43;99021.36;1748277;81;21052;-62
2022/03/07 09:58:13;;;;;;;5.87;3.47;;;;;;;5.66;39.42;99019.12;1742773;81;21594;-61
2022/03/07 10:00:41;;;;;;;4.53;3.37;;;;;;;5.76;39.52;99016.42;1747202;81;20928;-63
2022/03/07 10:03:11;;;;;;;5.35;3.47;;;;;;;5.83;39.27;99013.03;1750828;81;20972;-62
2022/03/07 10:05:42;;;;;;;3.60;3.30;;;;;;;5.89;39.18;99021.67;1757400;81;21055;-64
2022/03/07 10:08:09;;;;;;;5.10;4.00;;;;;;;5.93;39.22;99015.13;1752855;81;20888;-61
2022/03/07 10:10:42;;;;;;;7.53;5.10;;;;;;;5.97;39.14;99014.34;1745805;81;21247;-61
2022/03/07 10:13:13;;;;;;;5.80;4.45;;;;;;;6.01;39.18;99009.91;1743182;81;21481;-62
2022/03/07 10:15:41;;;;;;;9.13;6.03;;;;;;;6.04;39.09;99009.62;1749983;81;21477;-61
2022/03/07 10:18:17;;;;;;;8.53;6.20;;;;;;;6.03;39.14;99015.86;1757226;81;20972;-61
2022/03/07 10:20:51;;;;;;;11.65;7.75;;;;;;;6.02;39.35;99014.20;1746644;81;21489;-61
2022/03/07 10:23:18;;;;;;;8.83;6.40;;;;;;;6.07;39.47;99010.64;1750886;81;21184;-61
2022/03/07 10:25:47;;;;;;;7.90;6.12;;;;;;;6.10;39.55;99012.14;1688884;84;21063;-62
2022/03/07 10:28:14;;;;;;;5.95;5.25;;;;;;;6.10;39.55;99001.06;1725370;82;20995;-63
2022/03/07 10:30:41;;;;;;;13.70;5.75;;;;;;;6.11;39.58;99005.86;1721459;82;20922;-61
2022/03/07 10:33:12;;;;;;;8.63;5.05;;;;;;;6.13;39.62;99008.68;1724938;82;21014;-60
2022/03/07 10:35:50;;;;;;;9.10;3.95;;;;;;;6.17;39.63;99002.13;1727635;82;21225;-62
2022/03/07 10:38:18;;;;;;;5.12;4.35;;;;;;;6.21;39.59;99003.46;1700087;82;21058;-61
2022/03/07 10:40:48;;;;;;;7.45;4.60;;;;;;;6.25;39.51;98991.27;1719941;82;21006;-61
2022/03/07 10:43:16;;;;;;;4.83;4.20;;;;;;;6.30;39.45;98987.67;1701232;84;21559;-62
2022/03/07 10:45:52;;;;;;;4.20;3.60;;;;;;;6.35;39.26;98985.39;1719979;82;21025;-61
2022/03/07 10:48:22;;;;;;;5.80;4.42;;;;;;;6.37;39.17;98987.37;1726540;82;21588;-60
2022/03/07 10:50:57;;;;;;;7.33;5.40;;;;;;;6.35;38.97;98980.11;1729172;82;20895;-60
2022/03/07 10:53:25;;;;;;;7.45;5.00;;;;;;;6.34;39.16;98982.40;1723071;82;21118;-64
2022/03/07 10:55:56;;;;;;;5.08;4.50;;;;;;;6.41;39.17;98982.14;1719188;82;20908;-61
2022/03/07 10:58:23;;;;;;;5.30;3.87;;;;;;;6.43;39.06;98980.16;1715161;82;20983;-61
2022/03/07 11:00:59;;;;;;;6.08;3.87;;;;;;;6.39;39.01;98978.83;1720745;82;21252;-64
2022/03/07 11:03:33;;;;;;;5.17;3.65;;;;;;;6.37;39.01;98976.81;1716143;82;20967;-62
2022/03/07 11:06:02;;;;;;;7.40;4.00;;;;;;;6.31;39.00;98973.49;1718834;82;20943;-65
2022/03/07 11:08:29;;;;;;;5.45;3.67;;;;;;;6.30;39.14;98976.62;1706073;82;21133;-61
2022/03/07 11:11:00;;;;;;;4.97;3.72;;;;;;;6.27;39.11;98969.00;1726766;81;21104;-61
2022/03/07 11:13:30;;;;;;;5.17;3.83;;;;;;;6.26;39.14;98965.20;1721125;82;21458;-63
2022/03/07 11:16:04;;;;;;;5.53;4.25;;;;;;;6.20;39.27;98963.49;1712339;82;20987;-61
2022/03/07 11:18:33;;;;;;;4.53;3.40;;;;;;;6.21;39.43;98965.16;1710372;82;20994;-62
2022/03/07 11:21:06;;;;;;;4.05;3.50;;;;;;;6.20;39.43;98966.13;1719964;82;21019;-62
2022/03/07 11:23:30;;;;;;;7.28;3.92;;;;;;;6.18;39.50;98958.03;1714909;82;21556;-67
2022/03/07 11:25:58;;;;;;;5.60;4.25;;;;;;;6.17;39.60;98957.71;1712351;82;21352;-61
2022/03/07 11:28:30;;;;;;;6.12;3.77;;;;;;;6.17;39.81;98961.67;1709779;83;21470;-63
2022/03/07 11:30:58;;;;;;;5.30;3.65;;;;;;;6.23;40.09;98959.23;1713691;82;20958;-61
2022/03/07 11:33:33;;;;;;;4.90;3.90;;;;;;;6.30;40.22;98959.94;1699942;83;21003;-63
2022/03/07 11:35:54;;;;;;;3.98;3.45;;;;;;;6.43;40.17;98951.09;1713180;82;21442;-60
2022/03/07 11:38:28;;;;;;;4.70;3.02;;;;;;;6.43;40.27;98957.70;1719905;82;21655;-62
2022/03/07 11:41:06;;;;;;;3.70;3.22;;;;;;;6.43;40.46;98952.41;1764308;80;20926;-60